createdAt,value
2022-10-01T00:02:07.734Z,90.50
2022-10-01T00:04:37.623Z,90.57
2022-10-01T00:07:10.380Z,90.56
2022-10-01T00:09:38.748Z,90.57
2022-10-01T00:12:07.726Z,90.63
2022-10-01T00:14:39.284Z,90.71
2022-10-01T00:17:07.141Z,90.76
2022-10-01T00:19:34.957Z,90.73
2022-10-01T00:22:02.781Z,90.78
2022-10-01T00:24:30.449Z,90.76
2022-10-01T00:26:58.213Z,90.81
2022-10-01T00:29:25.845Z,90.82
2022-10-01T00:31:53.556Z,90.88
2022-10-01T00:34:21.397Z,90.98
2022-10-01T00:36:49.550Z,90.94
2022-10-01T00:39:17.217Z,90.94
2022-10-01T00:41:44.974Z,90.97
2022-10-01T00:44:36.197Z,91.03
2022-10-01T00:47:31.924Z,91.07
2022-10-01T00:50:22.609Z,91.18
2022-10-01T00:52:54.386Z,91.15
2022-10-01T00:55:26.823Z,91.11
2022-10-01T00:57:56.194Z,91.11
2022-10-01T01:00:24.022Z,91.12
2022-10-01T01:02:51.981Z,91.14
2022-10-01T01:05:20.045Z,91.17
2022-10-01T01:07:50.709Z,91.20
2022-10-01T01:10:49.565Z,91.25
2022-10-01T01:13:35.350Z,91.18
2022-10-01T01:16:12.907Z,91.24
2022-10-01T01:19:15.013Z,91.24
2022-10-01T01:21:48.102Z,91.30
2022-10-01T01:24:24.772Z,91.35
2022-10-01T01:26:58.782Z,91.39
2022-10-01T01:29:53.379Z,91.40
2022-10-01T01:32:36.394Z,91.40
2022-10-01T01:35:09.159Z,91.43
2022-10-01T01:37:44.926Z,91.45
2022-10-01T01:40:16.373Z,91.46
2022-10-01T01:42:46.697Z,91.54
2022-10-01T01:45:23.163Z,91.50
2022-10-01T01:47:56.165Z,91.47
2022-10-01T01:50:25.785Z,91.53
2022-10-01T01:52:54.546Z,91.52
2022-10-01T01:55:25.178Z,91.54
2022-10-01T01:57:54.585Z,91.54
2022-10-01T02:00:22.646Z,91.59
2022-10-01T02:02:54.154Z,91.61
2022-10-01T02:05:27.414Z,91.67
2022-10-01T02:08:22.075Z,91.77
2022-10-01T02:11:01.809Z,91.75
2022-10-01T02:13:44.673Z,91.70
2022-10-01T02:16:21.912Z,91.78
2022-10-01T02:19:05.049Z,91.74
2022-10-01T02:21:32.970Z,91.74
2022-10-01T02:24:14.694Z,91.73
2022-10-01T02:26:45.029Z,91.71
2022-10-01T02:29:16.889Z,91.70
2022-10-01T02:31:47.478Z,91.72
2022-10-01T02:34:20.218Z,91.74
2022-10-01T02:36:49.813Z,91.76
2022-10-01T02:39:19.217Z,91.73
2022-10-01T02:41:50.859Z,91.73
2022-10-01T02:44:23.870Z,91.71
2022-10-01T02:47:17.004Z,91.71
2022-10-01T02:49:44.969Z,91.73
2022-10-01T02:52:12.737Z,91.74
2022-10-01T02:54:43.365Z,91.74
2022-10-01T02:57:27.354Z,91.74
2022-10-01T03:00:00.183Z,91.77
2022-10-01T03:02:31.590Z,91.74
2022-10-01T03:05:00.375Z,91.76
2022-10-01T03:07:30.463Z,91.66
2022-10-01T03:09:58.373Z,91.70
2022-10-01T03:12:26.149Z,91.71
2022-10-01T03:14:53.886Z,91.73
2022-10-01T03:17:21.698Z,91.71
2022-10-01T03:19:49.433Z,91.70
2022-10-01T03:22:20.193Z,91.69
2022-10-01T03:24:51.497Z,91.74
2022-10-01T03:27:20.637Z,91.67
2022-10-01T03:29:48.878Z,91.70
2022-10-01T03:32:17.698Z,91.65
2022-10-01T03:34:45.671Z,91.65
2022-10-01T03:37:13.945Z,91.60
2022-10-01T03:39:41.705Z,91.57
2022-10-01T03:42:09.365Z,91.50
2022-10-01T03:44:37.340Z,91.44
2022-10-01T03:47:05.094Z,91.40
2022-10-01T03:49:33.985Z,91.32
2022-10-01T03:52:02.545Z,91.33
2022-10-01T03:54:31.569Z,91.33
2022-10-01T03:56:59.643Z,91.27
2022-10-01T03:59:27.613Z,91.13
2022-10-01T04:01:55.656Z,91.13
2022-10-01T04:04:23.525Z,91.03
2022-10-01T04:06:51.199Z,91.00
2022-10-01T04:09:18.961Z,90.91
2022-10-01T04:11:46.721Z,90.82
2022-10-01T04:14:14.401Z,90.75
2022-10-01T04:16:42.146Z,90.81
2022-10-01T04:19:09.906Z,90.75
2022-10-01T04:21:39.311Z,90.80
2022-10-01T04:24:07.089Z,90.77
2022-10-01T04:26:34.787Z,90.69
2022-10-01T04:29:02.483Z,90.66
2022-10-01T04:31:35.560Z,90.68
2022-10-01T04:34:04.283Z,90.53
2022-10-01T04:36:31.968Z,90.53
2022-10-01T04:39:02.402Z,90.53
2022-10-01T04:41:31.539Z,90.43
2022-10-01T04:44:00.407Z,90.45
2022-10-01T04:46:30.514Z,90.42
2022-10-01T04:48:58.548Z,90.42
2022-10-01T04:51:26.273Z,90.38
2022-10-01T04:53:54.054Z,90.38
2022-10-01T04:56:21.887Z,90.34
2022-10-01T04:58:49.684Z,90.39
2022-10-01T05:01:17.494Z,90.40
2022-10-01T05:03:45.238Z,90.38
2022-10-01T05:06:12.971Z,90.36
2022-10-01T05:08:40.739Z,90.41
2022-10-01T05:11:08.499Z,90.56
2022-10-01T05:13:37.676Z,90.63
2022-10-01T05:16:05.601Z,90.68
2022-10-01T05:18:33.543Z,90.80
2022-10-01T05:21:08.310Z,90.87
2022-10-01T05:23:35.927Z,90.99
2022-10-01T05:26:05.852Z,90.98
2022-10-01T05:28:35.058Z,90.99
2022-10-01T05:31:03.989Z,91.04
2022-10-01T05:33:31.785Z,91.11
2022-10-01T05:35:59.544Z,91.15
2022-10-01T05:38:27.162Z,91.20
2022-10-01T05:40:54.794Z,91.23
2022-10-01T05:43:22.419Z,91.32
2022-10-01T05:45:51.596Z,91.39
2022-10-01T05:48:19.487Z,91.47
2022-10-01T05:50:47.232Z,91.57
2022-10-01T05:53:16.162Z,91.62
2022-10-01T05:55:44.311Z,91.74
2022-10-01T05:58:14.092Z,91.81
2022-10-01T06:00:42.907Z,91.86
2022-10-01T06:03:13.210Z,91.96
2022-10-01T06:05:43.898Z,91.97
2022-10-01T06:08:12.382Z,92.03
2022-10-01T06:10:40.532Z,92.05
2022-10-01T06:13:08.284Z,92.25
2022-10-01T06:15:38.709Z,92.26
2022-10-01T06:18:08.717Z,92.28
2022-10-01T06:20:37.112Z,92.31
2022-10-01T06:23:07.517Z,92.38
2022-10-01T06:25:36.551Z,92.46
2022-10-01T06:28:06.097Z,92.49
2022-10-01T06:30:38.656Z,92.55
2022-10-01T06:33:15.398Z,92.57
2022-10-01T06:35:46.954Z,92.59
2022-10-01T06:38:16.220Z,92.63
2022-10-01T06:40:44.292Z,92.57
2022-10-01T06:43:11.955Z,92.54
2022-10-01T06:45:42.705Z,92.58
2022-10-01T06:48:14.070Z,92.61
2022-10-01T06:50:43.994Z,92.60
2022-10-01T06:53:13.152Z,92.54
2022-10-01T06:55:41.416Z,92.48
2022-10-01T06:58:12.765Z,92.40
2022-10-01T07:00:41.094Z,92.23
2022-10-01T07:03:14.042Z,92.08
2022-10-01T07:05:42.044Z,91.94
2022-10-01T07:08:09.953Z,91.87
2022-10-01T07:10:38.153Z,91.84
2022-10-01T07:13:18.525Z,91.83
2022-10-01T07:15:46.569Z,91.86
2022-10-01T07:18:14.647Z,91.87
2022-10-01T07:20:42.447Z,91.82
2022-10-01T07:23:15.488Z,91.83
2022-10-01T07:25:44.477Z,91.90
2022-10-01T07:28:18.732Z,91.90
2022-10-01T07:30:57.513Z,91.80
2022-10-01T07:33:25.280Z,91.82
2022-10-01T07:35:53.248Z,91.82
2022-10-01T07:38:21.317Z,91.81
2022-10-01T07:40:54.668Z,91.55
2022-10-01T07:43:23.051Z,91.25
2022-10-01T07:45:52.874Z,91.12
2022-10-01T07:48:20.703Z,90.73
2022-10-01T07:50:48.424Z,90.46
2022-10-01T07:53:16.512Z,90.29
2022-10-01T07:55:45.075Z,90.38
2022-10-01T07:58:12.840Z,90.30
2022-10-01T08:00:40.604Z,90.32
2022-10-01T08:03:12.122Z,90.30
2022-10-01T08:05:42.284Z,90.09
2022-10-01T08:08:09.953Z,89.85
2022-10-01T08:10:38.756Z,89.46
2022-10-01T08:13:15.622Z,89.26
2022-10-01T08:15:45.926Z,89.27
2022-10-01T08:18:14.075Z,88.98
2022-10-01T08:20:42.265Z,88.56
2022-10-01T08:23:15.161Z,87.99
2022-10-01T08:25:44.859Z,87.83
2022-10-01T08:28:12.906Z,87.71
2022-10-01T08:30:42.638Z,87.64
2022-10-01T08:33:12.325Z,87.31
2022-10-01T08:35:41.379Z,87.29
2022-10-01T08:38:09.935Z,87.28
2022-10-01T08:40:50.022Z,87.52
2022-10-01T08:43:41.081Z,87.39
2022-10-01T08:46:18.251Z,86.32
2022-10-01T08:49:08.556Z,86.62
2022-10-01T08:51:42.269Z,86.29
2022-10-01T08:54:42.902Z,86.47
2022-10-01T08:57:15.047Z,86.29
2022-10-01T08:59:45.486Z,85.77
2022-10-01T09:02:28.116Z,85.49
2022-10-01T09:05:02.984Z,85.59
2022-10-01T09:07:36.704Z,85.46
2022-10-01T09:10:36.037Z,85.31
2022-10-01T09:13:18.907Z,85.46
2022-10-01T09:15:53.165Z,84.81
2022-10-01T09:18:48.886Z,85.57
2022-10-01T09:21:28.229Z,85.94
2022-10-01T09:24:14.516Z,85.13
2022-10-01T09:26:49.042Z,84.66
2022-10-01T09:29:25.722Z,84.71
2022-10-01T09:31:55.306Z,83.72
2022-10-01T09:34:35.271Z,82.76
2022-10-01T09:37:21.659Z,82.52
2022-10-01T09:40:15.716Z,82.41
2022-10-01T09:42:44.073Z,82.80
2022-10-01T09:45:14.877Z,82.85
2022-10-01T09:47:48.206Z,81.94
2022-10-01T09:50:28.506Z,81.91
2022-10-01T09:53:00.388Z,81.77
2022-10-01T09:55:39.410Z,80.88
2022-10-01T09:58:17.196Z,81.18
2022-10-01T10:00:45.611Z,82.24
2022-10-01T10:03:27.919Z,82.17
2022-10-01T10:05:57.603Z,82.33
2022-10-01T10:08:35.756Z,81.80
2022-10-01T10:11:08.687Z,80.33
2022-10-01T10:13:49.236Z,80.20
2022-10-01T10:16:27.903Z,80.92
2022-10-01T10:19:00.691Z,79.25
2022-10-01T10:21:31.979Z,78.31
2022-10-01T10:24:02.837Z,77.92
2022-10-01T10:26:35.000Z,78.70
2022-10-01T10:29:04.902Z,78.80
2022-10-01T10:31:43.501Z,77.99
2022-10-01T10:34:38.523Z,79.10
2022-10-01T10:37:16.877Z,77.32
2022-10-01T10:39:51.244Z,76.43
2022-10-01T10:42:20.054Z,75.65
2022-10-01T10:44:51.093Z,74.73
2022-10-01T10:47:21.272Z,76.60
2022-10-01T10:49:57.180Z,75.20
2022-10-01T10:52:30.120Z,76.08
2022-10-01T10:55:00.154Z,76.77
2022-10-01T10:57:34.188Z,76.13
2022-10-01T11:00:11.953Z,75.85
2022-10-01T11:02:49.044Z,74.81
2022-10-01T11:05:32.989Z,74.70
2022-10-01T11:08:05.248Z,75.16
2022-10-01T11:11:10.438Z,75.05
2022-10-01T11:13:49.829Z,75.38
2022-10-01T11:17:00.288Z,76.18
2022-10-01T11:19:37.190Z,75.52
2022-10-01T11:22:28.890Z,76.51
2022-10-01T11:25:02.721Z,75.32
2022-10-01T11:28:01.167Z,72.53
2022-10-01T11:30:58.815Z,72.28
2022-10-01T11:34:15.925Z,73.53
2022-10-01T11:36:43.412Z,73.91
2022-10-01T11:39:17.736Z,74.10
2022-10-01T11:42:08.317Z,70.23
2022-10-01T11:44:43.791Z,71.18
2022-10-01T11:47:20.836Z,70.39
2022-10-01T11:50:19.339Z,71.06
2022-10-01T11:53:17.850Z,70.16
2022-10-01T11:56:18.868Z,70.29
2022-10-01T11:58:57.402Z,71.11
2022-10-01T12:01:50.702Z,69.94
2022-10-01T12:04:33.582Z,70.32
2022-10-01T12:07:12.288Z,69.18
2022-10-01T12:09:42.808Z,69.06
2022-10-01T12:12:19.700Z,69.75
2022-10-01T12:15:06.836Z,70.14
2022-10-01T12:17:47.112Z,69.69
2022-10-01T12:20:33.050Z,69.63
2022-10-01T12:23:05.328Z,69.45
2022-10-01T12:25:58.209Z,69.03
2022-10-01T12:28:38.946Z,68.78
2022-10-01T12:31:39.902Z,68.72
2022-10-01T12:34:25.605Z,68.39
2022-10-01T12:36:53.425Z,68.96
2022-10-01T12:39:38.996Z,69.12
2022-10-01T12:42:21.729Z,69.59
2022-10-01T12:44:58.594Z,68.11
2022-10-01T12:47:54.930Z,67.73
2022-10-01T12:50:38.973Z,68.81
2022-10-01T12:53:17.998Z,69.12
2022-10-01T12:56:01.380Z,69.13
2022-10-01T12:58:49.365Z,69.06
2022-10-01T13:01:29.318Z,69.33
2022-10-01T13:04:08.799Z,69.25
2022-10-01T13:07:00.487Z,70.13
2022-10-01T13:09:48.938Z,70.20
2022-10-01T13:12:36.973Z,70.38
2022-10-01T13:15:12.049Z,70.53
2022-10-01T13:17:50.213Z,70.27
2022-10-01T13:20:26.263Z,70.38
2022-10-01T13:23:07.334Z,70.14
2022-10-01T13:25:48.158Z,70.06
2022-10-01T13:28:26.850Z,70.90
2022-10-01T13:31:00.636Z,70.94
2022-10-01T13:33:36.085Z,70.53
2022-10-01T13:36:06.738Z,71.43
2022-10-01T13:38:48.018Z,71.35
2022-10-01T13:41:25.907Z,70.32
2022-10-01T13:44:22.113Z,70.90
2022-10-01T13:46:57.556Z,71.28
2022-10-01T13:49:28.858Z,71.16
2022-10-01T13:51:58.130Z,71.55
2022-10-01T13:54:43.581Z,71.84
2022-10-01T13:57:22.909Z,72.08
2022-10-01T14:00:16.962Z,72.52
2022-10-01T14:03:00.366Z,72.48
2022-10-01T14:05:35.194Z,72.79
2022-10-01T14:08:12.193Z,72.65
2022-10-01T14:11:08.255Z,72.71
2022-10-01T14:14:06.533Z,73.09
2022-10-01T14:16:42.014Z,73.94
2022-10-01T14:19:17.534Z,73.71
2022-10-01T14:21:45.181Z,73.99
2022-10-01T14:24:29.533Z,73.88
2022-10-01T14:27:09.587Z,73.89
2022-10-01T14:29:52.414Z,74.33
2022-10-01T14:32:42.086Z,74.16
2022-10-01T14:35:23.561Z,74.39
2022-10-01T14:37:51.761Z,74.30
2022-10-01T14:40:23.492Z,74.54
2022-10-01T14:43:03.325Z,74.45
2022-10-01T14:45:31.025Z,74.56
2022-10-01T14:48:03.574Z,75.01
2022-10-01T14:50:35.045Z,74.71
2022-10-01T14:53:03.081Z,74.71
2022-10-01T14:55:31.696Z,74.63
2022-10-01T14:57:59.396Z,74.93
2022-10-01T15:00:29.919Z,75.63
2022-10-01T15:03:10.237Z,75.84
2022-10-01T15:05:38.418Z,75.78
2022-10-01T15:08:24.239Z,76.02
2022-10-01T15:11:00.723Z,76.57
2022-10-01T15:13:38.140Z,76.42
2022-10-01T15:16:13.019Z,76.52
2022-10-01T15:18:46.574Z,76.53
2022-10-01T15:21:48.570Z,76.62
2022-10-01T15:24:30.229Z,77.01
2022-10-01T15:26:58.927Z,77.17
2022-10-01T15:29:27.034Z,77.45
2022-10-01T15:31:57.790Z,77.71
2022-10-01T15:34:27.523Z,77.97
2022-10-01T15:36:56.828Z,78.67
2022-10-01T15:39:38.628Z,78.23
2022-10-01T15:42:21.649Z,78.05
2022-10-01T15:44:50.122Z,78.07
2022-10-01T15:47:20.745Z,78.53
2022-10-01T15:50:16.877Z,78.68
2022-10-01T15:52:51.027Z,78.69
2022-10-01T15:55:34.133Z,79.09
2022-10-01T15:58:10.882Z,79.13
2022-10-01T16:00:52.498Z,79.43
2022-10-01T16:03:31.319Z,79.94
2022-10-01T16:06:01.923Z,79.76
2022-10-01T16:08:57.973Z,79.71
2022-10-01T16:11:31.969Z,79.76
2022-10-01T16:14:23.272Z,80.07
2022-10-01T16:16:53.185Z,80.19
2022-10-01T16:19:30.133Z,80.59
2022-10-01T16:22:31.871Z,80.65
2022-10-01T16:25:27.270Z,80.67
2022-10-01T16:28:04.078Z,81.02
2022-10-01T16:30:34.310Z,80.97
2022-10-01T16:33:04.661Z,81.14
2022-10-01T16:35:36.213Z,80.95
2022-10-01T16:38:09.975Z,81.00
2022-10-01T16:40:44.807Z,81.39
2022-10-01T16:43:23.751Z,81.63
2022-10-01T16:45:52.129Z,81.95
2022-10-01T16:48:23.236Z,81.98
2022-10-01T16:50:59.621Z,82.05
2022-10-01T16:53:29.120Z,82.24
2022-10-01T16:55:59.796Z,82.34
2022-10-01T16:58:29.591Z,82.87
2022-10-01T17:00:59.001Z,82.30
2022-10-01T17:03:28.920Z,82.40
2022-10-01T17:05:57.197Z,82.81
2022-10-01T17:08:24.973Z,82.89
2022-10-01T17:10:58.562Z,82.84
2022-10-01T17:13:30.444Z,82.97
2022-10-01T17:15:58.747Z,83.22
2022-10-01T17:18:26.764Z,83.08
2022-10-01T17:20:56.239Z,83.09
2022-10-01T17:23:24.468Z,83.27
2022-10-01T17:25:52.306Z,83.45
2022-10-01T17:28:20.730Z,83.67
2022-10-01T17:30:49.499Z,83.71
2022-10-01T17:33:21.946Z,83.72
2022-10-01T17:35:55.618Z,83.76
2022-10-01T17:38:23.732Z,83.88
2022-10-01T17:40:56.407Z,84.02
2022-10-01T17:43:24.605Z,84.05
2022-10-01T17:45:57.777Z,84.15
2022-10-01T17:48:27.363Z,84.39
2022-10-01T17:51:05.747Z,84.59
2022-10-01T17:53:41.855Z,84.61
2022-10-01T17:56:18.470Z,84.79
2022-10-01T17:58:46.745Z,84.75
2022-10-01T18:01:19.945Z,84.85
2022-10-01T18:03:52.360Z,84.97
2022-10-01T18:06:20.031Z,85.21
2022-10-01T18:08:56.319Z,85.07
2022-10-01T18:11:27.027Z,85.24
2022-10-01T18:13:54.773Z,85.28
2022-10-01T18:16:24.083Z,85.47
2022-10-01T18:21:48.529Z,85.49
2022-10-01T18:24:17.084Z,85.62
2022-10-01T18:26:45.899Z,85.82
2022-10-01T18:29:25.039Z,85.80
2022-10-01T18:31:59.197Z,86.08
2022-10-01T18:34:49.369Z,85.99
2022-10-01T18:37:40.139Z,86.23
2022-10-01T18:40:13.779Z,86.38
2022-10-01T18:42:44.927Z,86.47
2022-10-01T18:45:21.047Z,86.57
2022-10-01T18:48:10.008Z,86.63
2022-10-01T18:50:48.053Z,86.87
2022-10-01T18:53:30.580Z,87.00
2022-10-01T18:56:18.590Z,87.00
2022-10-01T18:59:23.931Z,87.00
2022-10-01T19:02:01.133Z,87.13
2022-10-01T19:05:19.772Z,87.11
2022-10-01T19:08:13.576Z,87.40
2022-10-01T19:11:01.376Z,87.37
2022-10-01T19:13:31.983Z,87.51
2022-10-01T19:16:11.997Z,87.48
2022-10-01T19:19:31.123Z,87.62
2022-10-01T19:22:10.971Z,87.85
2022-10-01T19:24:54.800Z,87.75
2022-10-01T19:27:49.530Z,87.82
2022-10-01T19:30:19.931Z,87.90
2022-10-01T19:32:58.276Z,87.92
2022-10-01T19:35:28.567Z,88.13
2022-10-01T19:38:14.961Z,88.07
2022-10-01T19:40:54.166Z,88.11
2022-10-01T19:43:27.710Z,88.46
2022-10-01T19:46:19.181Z,88.64
2022-10-01T19:49:00.727Z,88.70
2022-10-01T19:51:36.253Z,88.80
2022-10-01T19:54:03.904Z,88.71
2022-10-01T19:56:34.036Z,88.67
2022-10-01T19:59:10.996Z,88.64
2022-10-01T20:01:48.618Z,88.69
2022-10-01T20:04:23.428Z,88.76
2022-10-01T20:06:58.360Z,88.78
2022-10-01T20:09:39.350Z,88.80
2022-10-01T20:12:06.946Z,88.86
2022-10-01T20:15:21.852Z,88.91
2022-10-01T20:17:55.388Z,89.08
2022-10-01T20:20:30.897Z,89.05
2022-10-01T20:23:11.257Z,89.15
2022-10-01T20:25:44.598Z,89.11
2022-10-01T20:28:36.552Z,89.13
2022-10-01T20:31:23.273Z,89.32
2022-10-01T20:34:21.772Z,89.37
2022-10-01T20:37:23.441Z,89.41
2022-10-01T20:39:57.948Z,89.33
2022-10-01T20:42:38.821Z,89.42
2022-10-01T20:45:18.129Z,89.59
2022-10-01T20:47:54.109Z,89.20
2022-10-01T20:50:39.224Z,89.31
2022-10-01T20:53:18.207Z,89.45
2022-10-01T20:55:56.004Z,89.63
2022-10-01T20:58:31.768Z,89.82
2022-10-01T21:01:17.202Z,89.67
2022-10-01T21:03:51.995Z,89.82
2022-10-01T21:06:34.056Z,89.48
2022-10-01T21:09:19.896Z,89.62
2022-10-01T21:11:58.473Z,89.56
2022-10-01T21:14:44.451Z,89.40
2022-10-01T21:17:30.622Z,89.41
2022-10-01T21:20:10.518Z,89.30
2022-10-01T21:22:47.058Z,89.50
2022-10-01T21:25:32.675Z,89.39
2022-10-01T21:28:04.187Z,89.20
2022-10-01T21:30:53.772Z,89.32
2022-10-01T21:33:34.159Z,89.27
2022-10-01T21:36:45.734Z,89.30
2022-10-01T21:39:32.527Z,89.33
2022-10-01T21:42:22.414Z,89.32
2022-10-01T21:45:25.901Z,89.49
2022-10-01T21:48:16.224Z,89.56
2022-10-01T21:50:57.027Z,89.73
2022-10-01T21:53:39.783Z,89.89
2022-10-01T21:56:18.482Z,89.87
2022-10-01T21:59:16.976Z,89.87
2022-10-01T22:02:04.840Z,90.07
2022-10-01T22:04:50.712Z,90.03
2022-10-01T22:07:44.489Z,89.95
2022-10-01T22:10:25.085Z,90.23
2022-10-01T22:12:58.772Z,90.25
2022-10-01T22:15:41.562Z,90.27
2022-10-01T22:18:18.350Z,90.21
2022-10-01T22:20:48.168Z,90.56
2022-10-01T22:23:20.138Z,90.37
2022-10-01T22:26:02.015Z,90.48
2022-10-01T22:28:39.121Z,90.66
2022-10-01T22:31:14.584Z,90.84
2022-10-01T22:33:49.162Z,90.76
2022-10-01T22:36:29.215Z,90.81
2022-10-01T22:39:03.419Z,90.55
2022-10-01T22:42:32.599Z,90.62
2022-10-01T22:45:09.707Z,90.75
2022-10-01T22:47:56.107Z,90.79
2022-10-01T22:50:42.200Z,91.02
2022-10-01T22:53:21.659Z,90.91
2022-10-01T22:55:55.235Z,90.96
2022-10-01T22:58:42.149Z,90.95
2022-10-01T23:01:46.887Z,90.85
2022-10-01T23:04:15.180Z,90.92
2022-10-01T23:07:21.471Z,91.07
2022-10-01T23:10:10.175Z,91.19
2022-10-01T23:13:11.927Z,91.17
2022-10-01T23:16:06.292Z,91.24
2022-10-01T23:18:57.330Z,91.08
2022-10-01T23:21:33.899Z,91.28
2022-10-01T23:24:32.390Z,91.05
2022-10-01T23:27:27.435Z,91.14
2022-10-01T23:30:16.423Z,91.14
2022-10-01T23:33:10.500Z,91.06
2022-10-01T23:35:47.091Z,91.22
2022-10-01T23:38:17.827Z,91.31
2022-10-01T23:40:48.265Z,91.09
2022-10-01T23:43:31.447Z,90.99
2022-10-01T23:46:14.446Z,90.88
2022-10-01T23:48:50.727Z,91.01
2022-10-01T23:51:26.076Z,91.02
2022-10-01T23:53:53.661Z,90.91
2022-10-01T23:56:50.553Z,91.05
2022-10-01T23:59:39.038Z,91.01
